Venango Regional Airport Franklin US
ICAO: KFKL
IATA: FKL
Category: Medium
Scheduled Services: No

Elevation: 1540 ft
TransAlt. 18000 ft.

Airport Communications:
YOUNGSTOWN APP/DEP:133.95
AWOS 3:118.175
CLNC DEL:126.25
ALTOONA RDO:109.6
CTAF/UNICOM:122.7

KFKL Zoom In..

If Map Doesn't Load, Click Here

Runways:

(A) RW 03 length 5200 ft width 150 ft
---- / hdg 27

(B) RW 12 length 3593 ft width 100 ft
---- / hdg 116

(C) RW 21 length 5200 ft width 150 ft
ILS 110.50 / hdg 207

(D) RW 30 length 3593 ft width 100 ft
---- / hdg 296

Location; KFKL
Day. 21 / Time. 12.56 Zulu
* Altimeter: 30.06
* Temperature: 22° c. 71.6°f.
* Wind from: 200° Speed 08 kn.
Dewpoint: 19° c.
Visibility: 10 Statute Miles.
Clouds: Scattered 1000 ft.

KFKL 211256Z AUTO 20008KT 10SM SCT010 22/19 A3006 RMK AO2 SLP171 T02170194


Wind From 200°
Speed 08 kn.

 
 
jpsmedia.com for Web Design worldairports.se 2018   terms of use